Terminal Aerodrome Forecast
Issued by NWS

Home | Current Version | Previous Version | Text Only | Print | Product List | Glossary On
Versions: 1 2 3 4 5 6 7 8 9 10 11 12 13 14 15 16 17 18 19
823
FTUS43 KPAH 231120
TAFCGI
TAF
KCGI 231120Z 2312/2412 18004KT P6SM BKN025
      TEMPO 2312/2315 3SM BR SCT025
     FM231500 18010KT P6SM BKN030
     FM240000 18012KT P6SM SCT030 BKN250
     FM240600 19015G22KT P6SM BKN030=

USA.gov is the U.S. government's official web portal to all federal, state and local government web resources and services.